createdAt,value
2022-11-10T00:00:48.244Z,101329.44
2022-11-10T00:03:35.561Z,101329.09
2022-11-10T00:06:22.671Z,101326.22
2022-11-10T00:09:12.927Z,101333.59
2022-11-10T00:11:59.605Z,101329.56
2022-11-10T00:15:04.093Z,101331.94
2022-11-10T00:17:50.026Z,101332.44
2022-11-10T00:20:36.381Z,101335.94
2022-11-10T00:23:22.373Z,101330.50
2022-11-10T00:26:13.840Z,101334.69
2022-11-10T00:29:02.558Z,101331.28
2022-11-10T00:31:48.642Z,101333.22
2022-11-10T00:34:35.195Z,101335.00
2022-11-10T00:37:20.766Z,101333.41
2022-11-10T00:40:08.516Z,101333.09
2022-11-10T00:42:54.050Z,101342.41
2022-11-10T00:45:43.931Z,101344.22
2022-11-10T00:48:30.096Z,101336.03
2022-11-10T00:51:26.271Z,101344.41
2022-11-10T00:54:12.143Z,101335.88
2022-11-10T00:56:58.628Z,101336.06
2022-11-10T00:59:44.342Z,101334.28
2022-11-10T01:02:30.334Z,101336.22
2022-11-10T01:05:16.360Z,101335.88
2022-11-10T01:08:02.047Z,101332.69
2022-11-10T01:10:48.029Z,101335.41
2022-11-10T01:13:34.414Z,101332.84
2022-11-10T01:16:26.257Z,101333.34
2022-11-10T01:19:11.954Z,101334.94
2022-11-10T01:21:58.168Z,101331.41
2022-11-10T01:24:44.120Z,101327.09
2022-11-10T01:27:30.418Z,101329.31
2022-11-10T01:30:16.966Z,101333.34
2022-11-10T01:33:03.043Z,101322.75
2022-11-10T01:35:48.832Z,101327.25
2022-11-10T01:38:37.622Z,101341.41
2022-11-10T01:41:23.731Z,101332.41
2022-11-10T01:44:40.762Z,101339.97
2022-11-10T01:47:26.821Z,101334.66
2022-11-10T01:50:12.916Z,101329.81
2022-11-10T01:53:03.493Z,101331.44
2022-11-10T01:55:50.658Z,101329.34
2022-11-10T01:58:40.411Z,101323.09
2022-11-10T02:01:26.861Z,101324.69
2022-11-10T02:04:16.484Z,101321.78
2022-11-10T02:07:02.942Z,101326.13
2022-11-10T02:09:49.046Z,101325.47
2022-11-10T02:12:37.525Z,101318.59
2022-11-10T02:15:25.569Z,101316.31
2022-11-10T02:18:11.873Z,101316.19
2022-11-10T02:20:58.105Z,101322.63
2022-11-10T02:23:46.995Z,101320.50
2022-11-10T02:26:37.808Z,101323.56
2022-11-10T02:29:25.763Z,101318.91
2022-11-10T02:32:11.795Z,101315.38
2022-11-10T02:34:57.445Z,101317.31
2022-11-10T02:37:43.261Z,101308.78
2022-11-10T02:40:28.853Z,101317.91
2022-11-10T02:43:17.974Z,101328.38
2022-11-10T02:46:04.049Z,101333.81
2022-11-10T02:48:49.954Z,101331.09
2022-11-10T02:51:35.702Z,101331.09
2022-11-10T02:54:21.931Z,101335.13
2022-11-10T02:57:08.598Z,101339.47
2022-11-10T02:59:54.712Z,101341.25
2022-11-10T03:02:42.737Z,101347.50
2022-11-10T03:05:32.489Z,101336.09
2022-11-10T03:08:18.294Z,101345.25
2022-11-10T03:11:04.748Z,101346.06
2022-11-10T03:14:01.423Z,101342.03
2022-11-10T03:16:48.077Z,101344.78
2022-11-10T03:19:34.012Z,101350.22
2022-11-10T03:22:19.731Z,101350.53
2022-11-10T03:25:05.980Z,101357.09
2022-11-10T03:27:51.652Z,101361.75
2022-11-10T03:30:40.336Z,101359.03
2022-11-10T03:33:26.302Z,101370.78
2022-11-10T03:36:12.140Z,101370.13
2022-11-10T03:38:58.279Z,101369.63
2022-11-10T03:41:43.994Z,101373.97
2022-11-10T03:44:29.832Z,101375.13
2022-11-10T03:47:15.872Z,101380.56
2022-11-10T03:50:01.805Z,101382.50
2022-11-10T03:52:47.790Z,101382.84
2022-11-10T03:55:33.439Z,101391.00
2022-11-10T03:58:19.287Z,101398.41
2022-11-10T04:01:05.117Z,101406.72
2022-11-10T04:03:54.117Z,101411.66
2022-11-10T04:06:58.324Z,101410.19
2022-11-10T04:09:44.463Z,101416.13
2022-11-10T04:12:48.802Z,101414.66
2022-11-10T04:15:44.275Z,101423.19
2022-11-10T04:18:29.965Z,101424.31
2022-11-10T04:21:15.972Z,101430.25
2022-11-10T04:24:01.827Z,101436.81
2022-11-10T04:26:49.828Z,101440.03
2022-11-10T04:29:35.828Z,101439.53
2022-11-10T04:32:21.703Z,101442.28
2022-11-10T04:35:10.172Z,101438.75
2022-11-10T04:37:56.215Z,101434.69
2022-11-10T04:40:44.947Z,101442.28
2022-11-10T04:43:31.548Z,101447.91
2022-11-10T04:46:25.082Z,101452.56
2022-11-10T04:49:11.213Z,101448.22
2022-11-10T04:51:57.409Z,101453.66
2022-11-10T04:54:43.411Z,101459.91
2022-11-10T04:57:29.368Z,101450.66
2022-11-10T05:00:15.721Z,101461.84
2022-11-10T05:03:04.007Z,101452.06
2022-11-10T05:05:49.945Z,101445.63
2022-11-10T05:08:37.717Z,101447.72
2022-11-10T05:11:26.029Z,101458.63
2022-11-10T05:14:11.871Z,101453.50
2022-11-10T05:16:57.925Z,101454.78
2022-11-10T05:19:44.099Z,101452.19
2022-11-10T05:22:30.032Z,101456.03
2022-11-10T05:25:16.352Z,101460.16
2022-11-10T05:28:04.023Z,101467.53
2022-11-10T05:30:49.822Z,101462.72
2022-11-10T05:33:37.758Z,101466.63
2022-11-10T05:36:23.694Z,101477.41
2022-11-10T05:39:09.238Z,101472.59
2022-11-10T05:41:55.452Z,101470.78
2022-11-10T05:44:41.163Z,101475.72
2022-11-10T05:47:26.741Z,101486.25
2022-11-10T05:50:12.730Z,101482.72
2022-11-10T05:52:58.464Z,101491.84
2022-11-10T05:55:44.464Z,101496.38
2022-11-10T05:58:33.149Z,101501.22
2022-11-10T06:01:19.003Z,101502.81
2022-11-10T06:04:05.243Z,101502.50
2022-11-10T06:06:51.460Z,101510.69
2022-11-10T06:09:38.068Z,101508.75
2022-11-10T06:12:30.353Z,101515.53
2022-11-10T06:15:16.979Z,101517.78
2022-11-10T06:18:03.600Z,101535.13
2022-11-10T06:20:49.340Z,101534.50
2022-11-10T06:23:35.145Z,101537.72
2022-11-10T06:26:20.949Z,101540.44
2022-11-10T06:29:06.884Z,101551.69
2022-11-10T06:31:53.097Z,101561.47
2022-11-10T06:34:38.797Z,101565.19
2022-11-10T06:37:24.625Z,101571.31
2022-11-10T06:40:12.858Z,101569.06
2022-11-10T06:42:59.814Z,101572.38
2022-11-10T06:45:45.783Z,101579.16
2022-11-10T06:48:31.990Z,101576.75
2022-11-10T06:51:20.531Z,101578.66
2022-11-10T06:54:10.156Z,101581.50
2022-11-10T06:56:56.043Z,101576.75
2022-11-10T06:59:42.048Z,101580.03
2022-11-10T07:02:27.690Z,101590.75
2022-11-10T07:05:15.347Z,101594.78
2022-11-10T07:08:06.962Z,101594.63
2022-11-10T07:10:55.527Z,101598.28
2022-11-10T07:13:41.458Z,101600.69
2022-11-10T07:16:27.364Z,101597.63
2022-11-10T07:19:13.298Z,101599.56
2022-11-10T07:21:59.063Z,101609.88
2022-11-10T07:24:45.895Z,101607.13
2022-11-10T07:27:32.429Z,101611.97
2022-11-10T07:30:18.502Z,101630.00
2022-11-10T07:33:13.417Z,101629.53
2022-11-10T07:36:01.466Z,101631.44
2022-11-10T07:38:47.595Z,101638.03
2022-11-10T07:41:33.585Z,101643.16
2022-11-10T07:44:19.693Z,101638.16
2022-11-10T07:47:05.514Z,101634.91
2022-11-10T07:49:51.654Z,101644.63
2022-11-10T07:52:37.947Z,101649.63
2022-11-10T07:55:23.848Z,101642.44
2022-11-10T07:58:14.287Z,101644.91
2022-11-10T08:01:00.384Z,101647.53
2022-11-10T08:03:46.690Z,101655.94
2022-11-10T08:06:36.097Z,101652.59
2022-11-10T08:09:22.471Z,101662.88
2022-11-10T08:12:11.253Z,101658.09
2022-11-10T08:14:56.944Z,101658.91
2022-11-10T08:17:43.304Z,101663.91
2022-11-10T08:20:29.708Z,101662.53
2022-11-10T08:23:16.308Z,101667.72
2022-11-10T08:26:02.219Z,101672.28
2022-11-10T08:28:48.372Z,101677.69
2022-11-10T08:31:34.347Z,101689.75
2022-11-10T08:34:21.749Z,101689.03
2022-11-10T08:37:07.884Z,101703.16
2022-11-10T08:39:54.005Z,101701.28
2022-11-10T08:42:40.037Z,101714.16
2022-11-10T08:45:26.807Z,101715.91
2022-11-10T08:48:15.669Z,101729.13
2022-11-10T08:51:02.225Z,101726.75
2022-11-10T08:53:48.505Z,101738.22
2022-11-10T08:56:34.675Z,101742.69
2022-11-10T08:59:21.949Z,101750.38
2022-11-10T09:02:10.305Z,101753.09
2022-11-10T09:04:56.437Z,101762.81
2022-11-10T09:07:45.193Z,101772.38
2022-11-10T09:10:35.733Z,101774.69
2022-11-10T09:13:27.757Z,101780.31
2022-11-10T09:16:15.322Z,101782.44
2022-11-10T09:19:01.166Z,101785.97
2022-11-10T09:21:49.452Z,101791.09
2022-11-10T09:24:35.542Z,101798.72
2022-11-10T09:27:21.801Z,101801.19
2022-11-10T09:30:16.264Z,101799.59
2022-11-10T09:33:03.805Z,101805.41
2022-11-10T09:35:50.881Z,101804.28
2022-11-10T09:38:39.383Z,101814.13
2022-11-10T09:41:29.862Z,101813.34
2022-11-10T09:44:39.162Z,101817.06
2022-11-10T09:47:56.384Z,101825.75
2022-11-10T09:50:51.610Z,101829.31
2022-11-10T09:53:44.708Z,101828.75
2022-11-10T09:56:37.588Z,101845.34
2022-11-10T09:59:28.112Z,101845.00
2022-11-10T10:02:30.844Z,101847.59
2022-11-10T10:05:28.081Z,101855.94
2022-11-10T10:08:39.469Z,101854.00
2022-11-10T10:12:02.591Z,101851.47
2022-11-10T10:15:14.533Z,101844.94
2022-11-10T10:18:25.671Z,101846.41
2022-11-10T10:21:34.868Z,101851.59
2022-11-10T10:24:23.144Z,101852.31
2022-11-10T10:27:20.057Z,101844.31
2022-11-10T10:30:17.489Z,101853.69
2022-11-10T10:33:14.563Z,101854.56
2022-11-10T10:36:08.461Z,101861.69
2022-11-10T10:39:01.756Z,101845.41
2022-11-10T10:41:47.811Z,101843.16
2022-11-10T10:44:33.681Z,101840.75
2022-11-10T10:47:20.092Z,101841.34
2022-11-10T10:50:22.780Z,101836.56
2022-11-10T10:53:11.112Z,101840.91
2022-11-10T10:56:01.125Z,101841.88
2022-11-10T10:58:56.266Z,101856.22
2022-11-10T11:01:43.931Z,101845.41
2022-11-10T11:04:32.903Z,101847.31
2022-11-10T11:07:25.345Z,101857.59
2022-11-10T11:10:44.945Z,101864.25
2022-11-10T11:13:34.093Z,101876.19
2022-11-10T11:16:20.196Z,101883.72
2022-11-10T11:19:08.889Z,101883.56
2022-11-10T11:22:13.356Z,101888.69
2022-11-10T11:25:21.872Z,101883.59
2022-11-10T11:28:26.084Z,101893.25
2022-11-10T11:31:41.736Z,101887.78
2022-11-10T11:34:38.394Z,101886.81
2022-11-10T11:37:59.417Z,101888.47
2022-11-10T11:41:22.519Z,101898.13
2022-11-10T11:44:34.867Z,101900.97
2022-11-10T11:47:42.309Z,101893.09
2022-11-10T11:50:41.685Z,101895.84
2022-11-10T11:53:50.471Z,101906.47
2022-11-10T11:56:46.149Z,101910.38
2022-11-10T12:00:03.746Z,101915.69
2022-11-10T12:03:14.372Z,101911.16
2022-11-10T12:06:23.240Z,101916.31
2022-11-10T12:09:19.263Z,101911.00
2022-11-10T12:12:23.981Z,101920.41
2022-11-10T12:15:31.873Z,101927.31
2022-11-10T12:18:32.318Z,101926.19
2022-11-10T12:21:43.404Z,101932.97
2022-11-10T12:25:09.870Z,101934.75
2022-11-10T12:28:23.973Z,101930.72
2022-11-10T12:31:18.195Z,101931.69
2022-11-10T12:34:22.816Z,101936.19
2022-11-10T12:37:16.200Z,101947.16
2022-11-10T12:40:10.289Z,101947.50
2022-11-10T12:43:03.349Z,101949.59
2022-11-10T12:45:58.253Z,101952.34
2022-11-10T12:49:07.824Z,101957.97
2022-11-10T12:52:05.336Z,101963.16
2022-11-10T12:54:51.526Z,101961.38
2022-11-10T12:57:41.457Z,101968.78
2022-11-10T13:00:35.354Z,101971.22
2022-11-10T13:03:26.919Z,101972.66
2022-11-10T13:06:26.777Z,101985.75
2022-11-10T13:09:29.013Z,101963.47
2022-11-10T13:12:16.994Z,101971.69
2022-11-10T13:15:41.636Z,101967.66
2022-11-10T13:18:30.268Z,101970.41
2022-11-10T13:21:16.459Z,101969.28
2022-11-10T13:24:08.200Z,101968.94
2022-11-10T13:26:55.385Z,101967.47
2022-11-10T13:29:56.437Z,101976.69
2022-11-10T13:32:43.148Z,101972.34
2022-11-10T13:35:29.016Z,101984.91
2022-11-10T13:38:35.617Z,101986.88
2022-11-10T13:41:26.379Z,101979.75
2022-11-10T13:44:30.726Z,101994.28
2022-11-10T13:47:35.064Z,102003.00
2022-11-10T13:50:40.337Z,101993.00
2022-11-10T13:53:48.431Z,102007.53
2022-11-10T13:57:04.686Z,102011.53
2022-11-10T14:00:06.153Z,102007.19
2022-11-10T14:02:57.255Z,102007.03
2022-11-10T14:06:02.144Z,102015.41
2022-11-10T14:08:59.356Z,102022.84
2022-11-10T14:12:15.653Z,102020.75
2022-11-10T14:15:15.027Z,102029.28
2022-11-10T14:18:01.125Z,102033.47
2022-11-10T14:20:54.117Z,102027.78
2022-11-10T14:23:48.290Z,102034.72
2022-11-10T14:26:44.696Z,102039.22
2022-11-10T14:29:34.628Z,102045.84
2022-11-10T14:32:24.745Z,102057.00
2022-11-10T14:35:22.824Z,102048.75
2022-11-10T14:38:37.327Z,102041.16
2022-11-10T14:41:24.685Z,102055.06
2022-11-10T14:44:19.845Z,102061.00
2022-11-10T14:47:33.087Z,102062.81
2022-11-10T14:50:21.867Z,102070.19
2022-11-10T14:53:33.511Z,102073.06
2022-11-10T14:56:23.380Z,102067.56
2022-11-10T14:59:13.886Z,102080.31
2022-11-10T15:02:02.073Z,102089.47
2022-11-10T15:04:50.949Z,102094.44
2022-11-10T15:07:38.105Z,102094.25
2022-11-10T15:10:27.902Z,102098.94
2022-11-10T15:13:18.303Z,102099.91
2022-11-10T15:16:30.715Z,102109.28
2022-11-10T15:19:28.536Z,102112.50
2022-11-10T15:22:19.346Z,102110.69
2022-11-10T15:25:16.613Z,102104.06
2022-11-10T15:28:05.027Z,102108.03
2022-11-10T15:30:54.078Z,102109.59
2022-11-10T15:33:46.647Z,102116.94
2022-11-10T15:36:34.997Z,102118.38
2022-11-10T15:39:25.198Z,102119.31
2022-11-10T15:42:23.396Z,102119.44
2022-11-10T15:45:09.953Z,102125.84
2022-11-10T15:47:58.587Z,102129.16
2022-11-10T15:50:48.002Z,102127.47
2022-11-10T15:53:38.554Z,102120.50
2022-11-10T15:56:25.347Z,102122.03
2022-11-10T15:59:11.545Z,102120.84
2022-11-10T16:01:57.884Z,102108.72
2022-11-10T16:04:44.059Z,102111.25
2022-11-10T16:07:30.215Z,102089.69
2022-11-10T16:10:16.496Z,102107.34
2022-11-10T16:13:02.290Z,102125.38
2022-11-10T16:15:51.728Z,102141.06
2022-11-10T16:18:42.642Z,102141.44
2022-11-10T16:21:29.836Z,102161.19
2022-11-10T16:24:15.787Z,102155.81
2022-11-10T16:27:01.721Z,102180.84
2022-11-10T16:29:48.066Z,102180.84
2022-11-10T16:32:33.931Z,102171.63
2022-11-10T16:35:19.905Z,102189.56
2022-11-10T16:38:17.773Z,102189.06
2022-11-10T16:41:04.639Z,102193.84
2022-11-10T16:43:52.259Z,102197.47
2022-11-10T16:46:38.642Z,102204.88
2022-11-10T16:49:33.007Z,102207.81
2022-11-10T16:52:19.361Z,102206.31
2022-11-10T16:55:05.586Z,102232.75
2022-11-10T16:57:51.660Z,102228.38
2022-11-10T17:00:38.738Z,102232.75
2022-11-10T17:03:32.885Z,102222.41
2022-11-10T17:06:21.568Z,102228.84
2022-11-10T17:09:14.434Z,102239.19
2022-11-10T17:12:00.319Z,102233.00
2022-11-10T17:14:48.999Z,102242.09
2022-11-10T17:17:36.440Z,102246.84
2022-11-10T17:20:40.592Z,102251.03
2022-11-10T17:23:27.077Z,102248.66
2022-11-10T17:26:18.124Z,102241.97
2022-11-10T17:29:04.263Z,102241.97
2022-11-10T17:31:50.503Z,102247.53
2022-11-10T17:34:37.156Z,102248.66
2022-11-10T17:37:23.162Z,102257.84
2022-11-10T17:40:21.879Z,102262.00
2022-11-10T17:43:12.392Z,102262.81
2022-11-10T17:45:58.196Z,102262.00
2022-11-10T17:48:44.006Z,102254.72
2022-11-10T17:51:33.230Z,102263.72
2022-11-10T17:54:19.035Z,102267.69
2022-11-10T17:57:11.783Z,102297.28
2022-11-10T17:59:57.835Z,102291.59
2022-11-10T18:02:45.643Z,102305.88
2022-11-10T18:05:31.300Z,102305.56
2022-11-10T18:08:18.036Z,102308.53
2022-11-10T18:11:04.156Z,102316.09
2022-11-10T18:13:50.215Z,102295.06
2022-11-10T18:16:37.325Z,102303.03
2022-11-10T18:19:27.085Z,102325.19
2022-11-10T18:22:13.411Z,102323.88
2022-11-10T18:24:59.492Z,102323.22
2022-11-10T18:27:45.323Z,102322.47
2022-11-10T18:30:35.185Z,102317.97
2022-11-10T18:33:21.940Z,102330.44
2022-11-10T18:36:09.285Z,102333.09
2022-11-10T18:38:55.275Z,102320.56
2022-11-10T18:41:52.750Z,102328.47
2022-11-10T18:44:38.645Z,102345.06
2022-11-10T18:47:24.730Z,102347.78
2022-11-10T18:50:11.215Z,102346.56
2022-11-10T18:52:57.010Z,102345.13
2022-11-10T18:55:52.782Z,102351.34
2022-11-10T18:58:38.819Z,102357.91
2022-11-10T19:01:25.235Z,102341.38
2022-11-10T19:04:13.512Z,102367.22
2022-11-10T19:06:59.354Z,102343.91
2022-11-10T19:09:45.683Z,102359.47
2022-11-10T19:12:31.963Z,102354.66
2022-11-10T19:15:17.654Z,102343.00
2022-11-10T19:18:03.634Z,102347.66
2022-11-10T19:20:49.762Z,102361.75
2022-11-10T19:23:36.304Z,102369.50
2022-11-10T19:26:23.553Z,102389.13
2022-11-10T19:29:09.668Z,102385.88
2022-11-10T19:31:55.663Z,102391.16
2022-11-10T19:34:41.653Z,102381.84
2022-11-10T19:37:32.026Z,102388.69
2022-11-10T19:40:21.239Z,102401.53
2022-11-10T19:43:10.351Z,102397.44
2022-11-10T19:45:57.018Z,102411.88
2022-11-10T19:48:44.070Z,102415.56
2022-11-10T19:51:30.363Z,102406.69
2022-11-10T19:54:17.314Z,102405.13
2022-11-10T19:57:03.424Z,102418.34
2022-11-10T19:59:49.496Z,102419.75
2022-11-10T20:02:35.337Z,102417.03
2022-11-10T20:05:24.304Z,102426.84
2022-11-10T20:08:12.069Z,102423.06
2022-11-10T20:11:06.428Z,102425.09
2022-11-10T20:13:55.388Z,102439.09
2022-11-10T20:16:41.181Z,102443.19
2022-11-10T20:19:27.073Z,102447.28
2022-11-10T20:22:12.982Z,102455.50
2022-11-10T20:24:59.317Z,102457.44
2022-11-10T20:27:45.489Z,102468.59
2022-11-10T20:30:36.258Z,102470.53
2022-11-10T20:33:22.313Z,102477.44
2022-11-10T20:36:20.174Z,102487.59
2022-11-10T20:39:07.010Z,102494.69
2022-11-10T20:41:53.063Z,102490.63
2022-11-10T20:44:39.285Z,102495.84
2022-11-10T20:47:26.191Z,102499.69
2022-11-10T20:50:16.359Z,102494.81
2022-11-10T20:53:05.962Z,102496.44
2022-11-10T20:56:00.936Z,102498.88
2022-11-10T20:58:47.346Z,102498.06
2022-11-10T21:01:33.674Z,102497.56
2022-11-10T21:04:21.995Z,102502.25
2022-11-10T21:07:08.362Z,102496.56
2022-11-10T21:09:54.631Z,102494.13
2022-11-10T21:12:49.597Z,102483.78
2022-11-10T21:15:38.977Z,102489.00
2022-11-10T21:18:34.820Z,102476.81
2022-11-10T21:21:23.599Z,102475.94
2022-11-10T21:24:10.664Z,102466.38
2022-11-10T21:26:57.824Z,102481.59
2022-11-10T21:29:44.262Z,102480.59
2022-11-10T21:32:30.383Z,102470.72
2022-11-10T21:35:16.761Z,102478.09
2022-11-10T21:38:03.169Z,102478.38
2022-11-10T21:40:49.160Z,102468.59
2022-11-10T21:43:35.749Z,102474.28
2022-11-10T21:46:21.594Z,102474.53
2022-11-10T21:49:08.289Z,102473.16
2022-11-10T21:51:54.809Z,102476.44
2022-11-10T21:54:40.747Z,102480.53
2022-11-10T21:57:26.798Z,102484.59
2022-11-10T22:00:13.562Z,102482.19
2022-11-10T22:03:04.970Z,102491.53
2022-11-10T22:05:50.501Z,102479.66
2022-11-10T22:08:38.918Z,102493.81
2022-11-10T22:11:43.307Z,102495.19
2022-11-10T22:14:48.062Z,102496.50
2022-11-10T22:17:52.261Z,102495.38
2022-11-10T22:20:38.287Z,102510.06
2022-11-10T22:23:44.324Z,102514.16
2022-11-10T22:26:30.533Z,102507.34
2022-11-10T22:29:16.910Z,102513.09
2022-11-10T22:32:05.390Z,102513.91
2022-11-10T22:34:54.352Z,102512.84
2022-11-10T22:37:40.115Z,102518.31
2022-11-10T22:40:45.956Z,102522.16
2022-11-10T22:43:50.313Z,102516.97
2022-11-10T22:46:45.929Z,102526.78
2022-11-10T22:49:31.987Z,102520.59
2022-11-10T22:52:17.741Z,102523.91
2022-11-10T22:55:06.644Z,102528.03
2022-11-10T22:57:53.149Z,102527.22
2022-11-10T23:00:40.914Z,102526.41
2022-11-10T23:03:26.809Z,102522.84
2022-11-10T23:06:12.874Z,102524.44
2022-11-10T23:08:59.994Z,102524.97
2022-11-10T23:11:45.838Z,102517.63
2022-11-10T23:14:31.835Z,102510.56
2022-11-10T23:17:17.706Z,102517.63
2022-11-10T23:20:04.362Z,102509.75
2022-11-10T23:22:50.255Z,102512.44
2022-11-10T23:25:36.235Z,102522.47
2022-11-10T23:28:22.313Z,102515.16
2022-11-10T23:31:12.453Z,102517.34
2022-11-10T23:33:58.980Z,102511.41
2022-11-10T23:36:45.162Z,102519.59
2022-11-10T23:39:31.079Z,102523.13
2022-11-10T23:42:17.218Z,102528.59
2022-11-10T23:45:03.445Z,102528.84
2022-11-10T23:47:49.449Z,102528.31
2022-11-10T23:50:35.532Z,102533.22
2022-11-10T23:53:21.858Z,102538.09
2022-11-10T23:56:11.961Z,102537.84
2022-11-10T23:58:57.990Z,102543.81
